createdAt,value
2018-02-03T00:00:56.225Z,3.69
2018-02-03T00:01:56.941Z,3.76
2018-02-03T00:02:57.660Z,3.70
2018-02-03T00:03:58.406Z,3.63
2018-02-03T00:04:59.136Z,3.69
2018-02-03T00:05:59.902Z,3.68
2018-02-03T00:07:00.631Z,3.65
2018-02-03T00:08:01.347Z,3.73
2018-02-03T00:09:02.075Z,3.73
2018-02-03T00:10:02.789Z,3.66
2018-02-03T00:11:03.506Z,3.66
2018-02-03T00:12:04.258Z,3.68
2018-02-03T00:13:04.973Z,3.63
2018-02-03T00:14:05.727Z,3.65
2018-02-03T00:15:06.455Z,3.68
2018-02-03T00:16:07.172Z,3.66
2018-02-03T00:17:07.886Z,3.66
2018-02-03T00:18:08.629Z,3.66
2018-02-03T00:19:09.374Z,3.59
2018-02-03T00:20:10.128Z,3.62
2018-02-03T00:21:10.848Z,3.60
2018-02-03T00:22:11.587Z,3.66
2018-02-03T00:23:12.305Z,3.73
2018-02-03T00:24:13.024Z,3.62
2018-02-03T00:25:13.742Z,3.60
2018-02-03T00:26:14.498Z,3.59
2018-02-03T00:27:15.252Z,3.60
2018-02-03T00:28:15.970Z,3.65
2018-02-03T00:29:16.700Z,3.60
2018-02-03T00:30:17.417Z,3.58
2018-02-03T00:31:18.169Z,3.59
2018-02-03T00:32:18.898Z,3.59
2018-02-03T00:33:19.628Z,3.58
2018-02-03T00:34:20.360Z,3.59
2018-02-03T00:35:21.088Z,3.59
2018-02-03T00:36:21.806Z,3.56
2018-02-03T00:37:22.522Z,3.55
2018-02-03T00:38:23.242Z,3.60
2018-02-03T00:39:23.965Z,3.56
2018-02-03T00:40:24.677Z,3.56
2018-02-03T00:41:25.406Z,3.53
2018-02-03T00:42:26.169Z,3.60
2018-02-03T00:43:26.903Z,3.59
2018-02-03T00:44:27.615Z,3.60
2018-02-03T00:45:28.366Z,3.58
2018-02-03T00:46:29.082Z,3.53
2018-02-03T00:47:29.823Z,3.53
2018-02-03T00:48:30.540Z,3.55
2018-02-03T00:49:31.296Z,3.59
2018-02-03T00:50:32.063Z,3.58
2018-02-03T00:51:32.778Z,3.48
2018-02-03T00:52:33.492Z,3.55
2018-02-03T00:53:34.219Z,3.48
2018-02-03T00:54:34.950Z,3.47
2018-02-03T00:55:35.678Z,3.45
2018-02-03T00:56:36.409Z,3.47
2018-02-03T00:57:37.137Z,3.48
2018-02-03T00:58:37.855Z,3.47
2018-02-03T00:59:38.575Z,3.45
2018-02-03T01:00:39.304Z,3.47
2018-02-03T01:01:40.020Z,3.55
2018-02-03T01:02:40.762Z,3.50
2018-02-03T01:03:41.479Z,3.48
2018-02-03T01:04:42.200Z,3.56
2018-02-03T01:05:42.930Z,3.65
2018-02-03T01:06:43.678Z,3.58
2018-02-03T01:07:44.405Z,3.56
2018-02-03T01:08:45.159Z,3.60
2018-02-03T01:09:45.878Z,3.59
2018-02-03T01:10:46.593Z,3.56
2018-02-03T01:11:47.321Z,3.62
2018-02-03T01:12:48.038Z,3.59
2018-02-03T01:13:48.754Z,3.60
2018-02-03T01:14:49.484Z,3.58
2018-02-03T01:15:50.203Z,3.56
2018-02-03T01:16:50.919Z,3.47
2018-02-03T01:17:51.637Z,3.60
2018-02-03T01:18:52.365Z,3.60
2018-02-03T01:19:53.093Z,3.56
2018-02-03T01:20:53.858Z,3.58
2018-02-03T01:21:54.574Z,3.60
2018-02-03T01:22:55.302Z,3.48
2018-02-03T01:23:56.032Z,3.59
2018-02-03T01:24:56.760Z,3.47
2018-02-03T01:25:57.489Z,3.44
2018-02-03T01:26:58.207Z,3.48
2018-02-03T01:27:58.962Z,3.31
2018-02-03T01:28:59.717Z,3.45
2018-02-03T01:30:00.445Z,3.45
2018-02-03T01:31:01.174Z,3.41
2018-02-03T01:32:01.892Z,3.41
2018-02-03T01:33:02.632Z,3.40
2018-02-03T01:34:03.360Z,3.36
2018-02-03T01:35:04.076Z,3.29
2018-02-03T01:36:04.794Z,3.23
2018-02-03T01:37:05.512Z,3.34
2018-02-03T01:38:06.231Z,3.34
2018-02-03T01:39:06.961Z,3.19
2018-02-03T01:40:07.687Z,3.16
2018-02-03T01:41:08.403Z,3.23
2018-02-03T01:42:09.135Z,3.19
2018-02-03T01:43:09.851Z,3.19
2018-02-03T01:44:10.591Z,3.21
2018-02-03T01:45:11.308Z,3.26
2018-02-03T01:46:12.028Z,3.22
2018-02-03T01:47:12.755Z,3.19
2018-02-03T01:48:13.485Z,3.25
2018-02-03T01:49:14.246Z,3.18
2018-02-03T01:50:14.975Z,3.19
2018-02-03T01:51:15.693Z,3.21
2018-02-03T01:52:16.448Z,3.26
2018-02-03T01:53:17.166Z,3.28
2018-02-03T01:54:17.905Z,3.22
2018-02-03T01:55:18.634Z,3.21
2018-02-03T01:56:19.362Z,3.21
2018-02-03T01:57:20.115Z,3.18
2018-02-03T01:58:20.831Z,3.18
2018-02-03T01:59:21.560Z,3.22
2018-02-03T02:00:22.277Z,3.21
2018-02-03T02:01:22.992Z,3.21
2018-02-03T02:02:23.708Z,3.21
2018-02-03T02:03:24.426Z,3.16
2018-02-03T02:04:25.165Z,3.19
2018-02-03T02:05:25.880Z,3.25
2018-02-03T02:06:26.614Z,3.18
2018-02-03T02:07:27.328Z,3.23
2018-02-03T02:08:28.045Z,3.14
2018-02-03T02:09:28.763Z,3.19
2018-02-03T02:10:29.490Z,3.13
2018-02-03T02:11:30.218Z,3.18
2018-02-03T02:12:30.965Z,3.19
2018-02-03T02:13:31.695Z,3.05
2018-02-03T02:14:32.459Z,3.16
2018-02-03T02:15:33.176Z,3.00
2018-02-03T02:16:33.913Z,3.10
2018-02-03T02:17:34.642Z,3.11
2018-02-03T02:18:35.370Z,3.00
2018-02-03T02:19:36.089Z,2.95
2018-02-03T02:20:36.802Z,2.98
2018-02-03T02:21:37.557Z,2.98
2018-02-03T02:22:38.278Z,2.95
2018-02-03T02:23:38.993Z,2.83
2018-02-03T02:24:39.722Z,2.83
2018-02-03T02:25:40.451Z,2.92
2018-02-03T02:26:41.178Z,2.90
2018-02-03T02:27:41.905Z,2.79
2018-02-03T02:28:42.620Z,2.87
2018-02-03T02:29:43.648Z,2.79
2018-02-03T02:30:44.356Z,2.80
2018-02-03T02:31:45.063Z,2.79
2018-02-03T02:32:45.770Z,2.75
2018-02-03T02:33:46.491Z,2.82
2018-02-03T02:34:47.465Z,2.72
2018-02-03T02:35:48.178Z,2.83
2018-02-03T02:36:48.883Z,2.77
2018-02-03T02:37:49.589Z,2.82
2018-02-03T02:38:50.294Z,2.83
2018-02-03T02:39:51.015Z,2.75
2018-02-03T02:40:51.733Z,2.75
2018-02-03T02:41:52.441Z,2.74
2018-02-03T02:42:53.146Z,2.82
2018-02-03T02:43:53.853Z,2.77
2018-02-03T02:44:54.561Z,2.74
2018-02-03T02:45:55.268Z,2.85
2018-02-03T02:46:55.972Z,2.83
2018-02-03T02:47:56.679Z,2.82
2018-02-03T02:48:57.386Z,2.71
2018-02-03T02:49:58.092Z,2.77
2018-02-03T02:50:58.800Z,2.72
2018-02-03T02:51:59.506Z,2.74
2018-02-03T02:53:00.211Z,2.77
2018-02-03T02:54:00.919Z,2.77
2018-02-03T02:55:01.624Z,2.74
2018-02-03T02:56:02.331Z,2.79
2018-02-03T02:57:03.037Z,2.77
2018-02-03T02:58:03.742Z,2.75
2018-02-03T02:59:04.447Z,2.77
2018-02-03T03:00:05.156Z,2.77
2018-02-03T03:01:05.875Z,2.75
2018-02-03T03:02:06.583Z,2.77
2018-02-03T03:03:07.302Z,2.74
2018-02-03T03:04:08.020Z,2.75
2018-02-03T03:05:08.726Z,2.74
2018-02-03T03:06:09.444Z,2.72
2018-02-03T03:07:10.150Z,2.75
2018-02-03T03:08:10.870Z,2.74
2018-02-03T03:09:11.577Z,2.77
2018-02-03T03:10:12.296Z,2.72
2018-02-03T03:11:13.005Z,2.79
2018-02-03T03:12:13.709Z,2.79
2018-02-03T03:13:14.416Z,2.80
2018-02-03T03:14:15.123Z,2.72
2018-02-03T03:15:15.829Z,2.79
2018-02-03T03:16:16.548Z,2.72
2018-02-03T03:17:17.256Z,2.74
2018-02-03T03:18:17.964Z,2.80
2018-02-03T03:19:18.682Z,2.72
2018-02-03T03:20:19.399Z,2.72
2018-02-03T03:21:20.106Z,2.68
2018-02-03T03:22:20.827Z,2.68
2018-02-03T03:23:21.535Z,2.75
2018-02-03T03:24:22.257Z,2.71
2018-02-03T03:25:22.964Z,2.62
2018-02-03T03:26:23.670Z,2.74
2018-02-03T03:27:24.376Z,2.71
2018-02-03T03:28:25.096Z,2.65
2018-02-03T03:29:25.804Z,2.68
2018-02-03T03:30:26.507Z,2.65
2018-02-03T03:31:27.212Z,2.71
2018-02-03T03:32:27.919Z,2.71
2018-02-03T03:33:28.624Z,2.68
2018-02-03T03:34:29.329Z,2.75
2018-02-03T03:35:30.050Z,2.64
2018-02-03T03:36:30.768Z,2.65
2018-02-03T03:37:31.476Z,2.68
2018-02-03T03:38:32.176Z,2.67
2018-02-03T03:39:32.882Z,2.67
2018-02-03T03:40:33.587Z,2.67
2018-02-03T03:41:34.306Z,2.68
2018-02-03T03:42:35.012Z,2.68
2018-02-03T03:43:35.718Z,2.61
2018-02-03T03:44:36.425Z,2.67
2018-02-03T03:45:37.131Z,2.68
2018-02-03T03:46:37.852Z,2.71
2018-02-03T03:47:38.558Z,2.72
2018-02-03T03:48:39.265Z,2.71
2018-02-03T03:49:39.973Z,2.71
2018-02-03T03:50:40.690Z,2.65
2018-02-03T03:51:41.394Z,2.68
2018-02-03T03:52:42.098Z,2.62
2018-02-03T03:53:42.817Z,2.60
2018-02-03T03:54:43.522Z,2.64
2018-02-03T03:55:44.226Z,2.67
2018-02-03T03:56:44.931Z,2.65
2018-02-03T03:57:45.638Z,2.65
2018-02-03T03:58:46.344Z,2.61
2018-02-03T03:59:47.050Z,2.68
2018-02-03T04:00:47.756Z,2.71
2018-02-03T04:01:48.478Z,2.68
2018-02-03T04:02:49.185Z,2.72
2018-02-03T04:03:49.892Z,2.65
2018-02-03T04:04:50.612Z,2.67
2018-02-03T04:05:51.319Z,2.72
2018-02-03T04:06:52.025Z,2.68
2018-02-03T04:07:52.743Z,2.68
2018-02-03T04:08:53.448Z,2.65
2018-02-03T04:09:54.155Z,2.65
2018-02-03T04:10:54.861Z,2.65
2018-02-03T04:11:55.568Z,2.68
2018-02-03T04:12:56.275Z,2.68
2018-02-03T04:13:56.979Z,2.74
2018-02-03T04:14:57.686Z,2.72
2018-02-03T04:15:58.391Z,2.80
2018-02-03T04:16:59.097Z,2.72
2018-02-03T04:17:59.817Z,2.72
2018-02-03T04:19:00.523Z,2.71
2018-02-03T04:20:01.230Z,2.79
2018-02-03T04:21:01.949Z,2.69
2018-02-03T04:22:02.655Z,2.68
2018-02-03T04:23:03.374Z,2.75
2018-02-03T04:24:04.097Z,2.75
2018-02-03T04:25:04.803Z,2.80
2018-02-03T04:26:05.508Z,2.69
2018-02-03T04:27:06.213Z,2.68
2018-02-03T04:28:06.933Z,2.71
2018-02-03T04:29:07.639Z,2.71
2018-02-03T04:30:08.346Z,2.64
2018-02-03T04:31:09.051Z,2.75
2018-02-03T04:32:09.757Z,2.71
2018-02-03T04:33:10.464Z,2.68
2018-02-03T04:34:11.170Z,2.64
2018-02-03T04:35:11.877Z,2.65
2018-02-03T04:36:12.584Z,2.71
2018-02-03T04:37:13.292Z,2.75
2018-02-03T04:38:13.997Z,2.68
2018-02-03T04:39:14.703Z,2.65
2018-02-03T04:40:15.424Z,2.62
2018-02-03T04:41:16.129Z,2.72
2018-02-03T04:42:16.837Z,2.65
2018-02-03T04:43:17.559Z,2.77
2018-02-03T04:44:18.265Z,2.69
2018-02-03T04:45:18.972Z,2.68
2018-02-03T04:46:19.680Z,2.74
2018-02-03T04:47:20.398Z,2.75
2018-02-03T04:48:21.104Z,2.74
2018-02-03T04:49:21.811Z,2.71
2018-02-03T04:50:22.531Z,2.71
2018-02-03T04:51:23.237Z,2.69
2018-02-03T04:52:23.942Z,2.64
2018-02-03T04:53:24.647Z,2.71
2018-02-03T04:54:25.353Z,2.65
2018-02-03T04:55:26.060Z,2.65
2018-02-03T04:56:26.765Z,2.65
2018-02-03T04:57:27.472Z,2.60
2018-02-03T04:58:28.178Z,2.65
2018-02-03T04:59:28.883Z,2.71
2018-02-03T05:00:29.602Z,2.72
2018-02-03T05:01:30.310Z,2.67
2018-02-03T05:02:31.014Z,2.69
2018-02-03T05:03:31.720Z,2.68
2018-02-03T05:04:32.426Z,2.65
2018-02-03T05:05:33.144Z,2.62
2018-02-03T05:06:33.852Z,2.54
2018-02-03T05:07:34.557Z,2.65
2018-02-03T05:08:35.261Z,2.65
2018-02-03T05:09:35.982Z,2.65
2018-02-03T05:10:36.687Z,2.57
2018-02-03T05:11:37.394Z,2.62
2018-02-03T05:12:38.100Z,2.57
2018-02-03T05:13:38.806Z,2.57
2018-02-03T05:14:39.513Z,2.60
2018-02-03T05:15:40.218Z,2.53
2018-02-03T05:16:40.936Z,2.57
2018-02-03T05:17:41.642Z,2.54
2018-02-03T05:18:42.349Z,2.54
2018-02-03T05:19:43.066Z,2.50
2018-02-03T05:20:43.770Z,2.46
2018-02-03T05:21:44.476Z,2.54
2018-02-03T05:22:45.181Z,2.60
2018-02-03T05:23:45.904Z,2.60
2018-02-03T05:24:46.597Z,2.51
2018-02-03T05:25:47.299Z,2.54
2018-02-03T05:26:48.005Z,2.49
2018-02-03T05:27:48.708Z,2.56
2018-02-03T05:28:49.414Z,2.54
2018-02-03T05:29:50.120Z,2.65
2018-02-03T05:30:50.837Z,2.62
2018-02-03T05:31:51.544Z,2.60
2018-02-03T05:32:52.250Z,2.56
2018-02-03T05:33:52.958Z,2.51
2018-02-03T05:34:53.678Z,2.56
2018-02-03T05:35:54.383Z,2.65
2018-02-03T05:36:55.103Z,2.56
2018-02-03T05:37:55.824Z,2.51
2018-02-03T05:38:56.532Z,2.54
2018-02-03T05:39:57.247Z,2.51
2018-02-03T05:40:57.967Z,2.53
2018-02-03T05:41:58.673Z,2.54
2018-02-03T05:42:59.380Z,2.50
2018-02-03T05:44:00.085Z,2.46
2018-02-03T05:45:00.790Z,2.53
2018-02-03T05:46:01.513Z,2.56
2018-02-03T05:47:02.214Z,2.56
2018-02-03T05:48:02.921Z,2.53
2018-02-03T05:49:03.625Z,2.51
2018-02-03T05:50:04.331Z,2.51
2018-02-03T05:51:05.050Z,2.50
2018-02-03T05:52:05.743Z,2.51
2018-02-03T05:53:06.449Z,2.62
2018-02-03T05:54:07.167Z,2.50
2018-02-03T05:55:07.871Z,2.56
2018-02-03T05:56:08.576Z,2.50
2018-02-03T05:57:09.280Z,2.51
2018-02-03T05:58:09.997Z,2.53
2018-02-03T05:59:10.717Z,2.51
2018-02-03T06:00:11.421Z,2.60
2018-02-03T06:01:12.126Z,2.47
2018-02-03T06:02:12.832Z,2.53
2018-02-03T06:03:13.573Z,2.51
2018-02-03T06:04:14.242Z,2.51
2018-02-03T06:05:14.960Z,2.56
2018-02-03T06:06:15.665Z,2.51
2018-02-03T06:07:16.371Z,2.50
2018-02-03T06:08:17.076Z,2.50
2018-02-03T06:09:17.779Z,2.50
2018-02-03T06:10:18.497Z,2.53
2018-02-03T06:11:19.201Z,2.47
2018-02-03T06:12:19.918Z,2.56
2018-02-03T06:13:20.623Z,2.57
2018-02-03T06:14:21.327Z,2.43
2018-02-03T06:15:22.043Z,2.57
2018-02-03T06:16:22.747Z,2.38
2018-02-03T06:17:23.465Z,2.47
2018-02-03T06:18:24.170Z,2.46
2018-02-03T06:19:24.890Z,2.60
2018-02-03T06:20:25.607Z,2.53
2018-02-03T06:21:26.311Z,2.54
2018-02-03T06:22:27.016Z,2.47
2018-02-03T06:23:27.720Z,2.53
2018-02-03T06:24:28.426Z,2.54
2018-02-03T06:25:29.139Z,2.38
2018-02-03T06:26:29.835Z,2.47
2018-02-03T06:27:30.551Z,2.44
2018-02-03T06:28:31.256Z,2.42
2018-02-03T06:29:31.973Z,2.47
2018-02-03T06:30:32.680Z,2.42
2018-02-03T06:31:33.385Z,2.42
2018-02-03T06:32:34.092Z,2.43
2018-02-03T06:33:34.801Z,2.43
2018-02-03T06:34:35.523Z,2.44
2018-02-03T06:35:36.219Z,2.35
2018-02-03T06:36:36.956Z,2.44
2018-02-03T06:37:37.628Z,2.43
2018-02-03T06:38:38.331Z,2.39
2018-02-03T06:39:39.035Z,2.43
2018-02-03T06:40:39.741Z,2.42
2018-02-03T06:41:40.456Z,2.50
2018-02-03T06:42:41.161Z,2.42
2018-02-03T06:43:41.867Z,2.44
2018-02-03T06:44:42.570Z,2.44
2018-02-03T06:45:43.276Z,2.38
2018-02-03T06:46:43.990Z,2.50
2018-02-03T06:47:44.697Z,2.43
2018-02-03T06:48:45.401Z,2.43
2018-02-03T06:49:46.107Z,2.57
2018-02-03T06:50:46.827Z,2.44
2018-02-03T06:51:47.547Z,2.47
2018-02-03T06:52:48.253Z,2.56
2018-02-03T06:53:48.961Z,2.49
2018-02-03T06:54:49.666Z,2.62
2018-02-03T06:55:50.372Z,2.56
2018-02-03T06:56:51.090Z,2.49
2018-02-03T06:57:51.796Z,2.46
2018-02-03T06:58:52.507Z,2.44
2018-02-03T06:59:53.258Z,2.54
2018-02-03T07:00:53.930Z,2.53
2018-02-03T07:01:54.636Z,2.46
2018-02-03T07:02:55.343Z,2.51
2018-02-03T07:03:56.050Z,2.49
2018-02-03T07:04:56.768Z,2.49
2018-02-03T07:05:57.475Z,2.50
2018-02-03T07:06:58.181Z,2.50
2018-02-03T07:07:58.888Z,2.61
2018-02-03T07:08:59.596Z,2.56
2018-02-03T07:10:00.315Z,2.56
2018-02-03T07:11:01.033Z,2.60
2018-02-03T07:12:01.739Z,2.62
2018-02-03T07:13:02.445Z,2.56
2018-02-03T07:14:03.151Z,2.54
2018-02-03T07:15:03.855Z,2.65
2018-02-03T07:16:04.561Z,2.53
2018-02-03T07:17:05.285Z,2.64
2018-02-03T07:18:05.998Z,2.65
2018-02-03T07:19:06.704Z,2.65
2018-02-03T07:20:07.409Z,2.60
2018-02-03T07:21:08.131Z,2.62
2018-02-03T07:22:08.840Z,2.62
2018-02-03T07:23:09.545Z,2.62
2018-02-03T07:24:10.253Z,2.71
2018-02-03T07:25:10.960Z,2.61
2018-02-03T07:26:11.665Z,2.65
2018-02-03T07:27:12.372Z,2.65
2018-02-03T07:28:13.079Z,2.67
2018-02-03T07:29:13.786Z,2.67
2018-02-03T07:30:14.495Z,2.65
2018-02-03T07:31:15.215Z,2.68
2018-02-03T07:32:15.920Z,2.67
2018-02-03T07:33:16.640Z,2.65
2018-02-03T07:34:17.351Z,2.64
2018-02-03T07:35:18.059Z,2.61
2018-02-03T07:36:18.765Z,2.64
2018-02-03T07:37:19.487Z,2.64
2018-02-03T07:38:20.195Z,2.65
2018-02-03T07:39:20.919Z,2.65
2018-02-03T07:40:21.628Z,2.61
2018-02-03T07:41:22.334Z,2.68
2018-02-03T07:42:23.056Z,2.60
2018-02-03T07:43:23.766Z,2.64
2018-02-03T07:44:24.474Z,2.64
2018-02-03T07:45:25.181Z,2.62
2018-02-03T07:46:25.890Z,2.67
2018-02-03T07:47:26.601Z,2.67
2018-02-03T07:48:27.311Z,2.72
2018-02-03T07:49:28.046Z,2.71
2018-02-03T07:50:28.729Z,2.79
2018-02-03T07:51:29.451Z,2.72
2018-02-03T07:52:30.159Z,2.86
2018-02-03T07:53:30.884Z,2.79
2018-02-03T07:54:31.606Z,2.82
2018-02-03T07:55:32.315Z,2.77
2018-02-03T07:56:33.023Z,2.77
2018-02-03T07:57:33.731Z,2.74
2018-02-03T07:58:34.441Z,2.79
2018-02-03T07:59:35.148Z,2.74
2018-02-03T08:00:35.856Z,2.79
2018-02-03T08:01:36.566Z,2.74
2018-02-03T08:02:37.277Z,2.79
2018-02-03T08:03:37.987Z,2.86
2018-02-03T08:04:38.697Z,2.82
2018-02-03T08:05:39.405Z,2.77
2018-02-03T08:06:40.117Z,2.85
2018-02-03T08:07:40.827Z,2.74
2018-02-03T08:08:41.534Z,2.83
2018-02-03T08:09:42.243Z,2.86
2018-02-03T08:10:42.953Z,2.90
2018-02-03T08:11:43.661Z,2.86
2018-02-03T08:12:44.373Z,2.90
2018-02-03T08:13:45.084Z,2.85
2018-02-03T08:14:45.807Z,2.83
2018-02-03T08:15:46.518Z,2.86
2018-02-03T08:16:47.227Z,2.89
2018-02-03T08:17:47.939Z,2.87
2018-02-03T08:18:48.649Z,2.83
2018-02-03T08:19:49.361Z,2.79
2018-02-03T08:20:50.072Z,2.83
2018-02-03T08:21:50.794Z,2.74
2018-02-03T08:22:51.503Z,2.92
2018-02-03T08:23:52.227Z,2.83
2018-02-03T08:24:52.943Z,2.74
2018-02-03T08:25:53.649Z,2.86
2018-02-03T08:26:54.369Z,2.89
2018-02-03T08:27:55.078Z,2.89
2018-02-03T08:28:55.788Z,2.86
2018-02-03T08:29:56.498Z,2.90
2018-02-03T08:30:57.209Z,3.01
2018-02-03T08:31:57.963Z,2.97
2018-02-03T08:32:58.629Z,2.98
2018-02-03T08:33:59.339Z,2.86
2018-02-03T08:35:00.050Z,2.93
2018-02-03T08:36:00.768Z,2.97
2018-02-03T08:37:01.479Z,3.00
2018-02-03T08:38:02.188Z,3.03
2018-02-03T08:39:02.911Z,2.98
2018-02-03T08:40:03.619Z,3.01
2018-02-03T08:41:04.329Z,3.08
2018-02-03T08:42:05.040Z,3.08
2018-02-03T08:43:05.749Z,3.11
2018-02-03T08:44:06.458Z,3.08
2018-02-03T08:45:07.175Z,3.05
2018-02-03T08:46:07.879Z,3.16
2018-02-03T08:47:08.588Z,3.07
2018-02-03T08:48:09.300Z,3.01
2018-02-03T08:49:10.022Z,3.03
2018-02-03T08:50:10.732Z,3.08
2018-02-03T08:51:11.442Z,3.10
2018-02-03T08:52:12.148Z,3.11
2018-02-03T08:53:12.857Z,3.13
2018-02-03T08:54:13.566Z,3.11
2018-02-03T08:55:14.274Z,3.05
2018-02-03T08:56:14.986Z,2.97
2018-02-03T08:57:15.697Z,2.98
2018-02-03T08:58:16.408Z,3.00
2018-02-03T08:59:17.118Z,2.98
2018-02-03T09:00:17.828Z,2.98
2018-02-03T09:01:18.540Z,3.01
2018-02-03T09:02:19.250Z,3.00
2018-02-03T09:03:19.961Z,2.95
2018-02-03T09:04:20.671Z,3.01
2018-02-03T09:05:21.399Z,2.93
2018-02-03T09:06:22.121Z,2.95
2018-02-03T09:07:22.830Z,2.95
2018-02-03T09:08:23.541Z,2.97
2018-02-03T09:09:24.255Z,2.90
2018-02-03T09:10:24.968Z,2.93
2018-02-03T09:11:25.680Z,2.97
2018-02-03T09:12:26.392Z,3.03
2018-02-03T09:13:27.106Z,2.97
2018-02-03T09:14:27.814Z,3.04
2018-02-03T09:15:28.527Z,3.07
2018-02-03T09:16:29.253Z,3.11
2018-02-03T09:17:29.964Z,3.07
2018-02-03T09:18:30.680Z,3.14
2018-02-03T09:19:31.405Z,3.11
2018-02-03T09:20:32.115Z,3.23
2018-02-03T09:21:32.825Z,3.25
2018-02-03T09:22:33.538Z,3.25
2018-02-03T09:23:34.250Z,3.29
2018-02-03T09:24:34.962Z,3.40
2018-02-03T09:25:35.673Z,3.36
2018-02-03T09:26:36.387Z,3.37
2018-02-03T09:27:37.113Z,3.31
2018-02-03T09:28:37.824Z,3.37
2018-02-03T09:29:38.536Z,3.28
2018-02-03T09:30:39.245Z,3.26
2018-02-03T09:31:39.958Z,3.21
2018-02-03T09:32:40.666Z,3.18
2018-02-03T09:33:41.379Z,3.29
2018-02-03T09:34:42.091Z,3.28
2018-02-03T09:35:42.801Z,3.22
2018-02-03T09:36:43.512Z,3.22
2018-02-03T09:37:44.234Z,3.29
2018-02-03T09:38:44.934Z,3.28
2018-02-03T09:39:45.644Z,3.23
2018-02-03T09:40:46.369Z,3.34
2018-02-03T09:41:47.093Z,3.31
2018-02-03T09:42:47.804Z,3.34
2018-02-03T09:43:48.516Z,3.40
2018-02-03T09:44:49.228Z,3.45
2018-02-03T09:45:49.941Z,3.40
2018-02-03T09:46:50.652Z,3.41
2018-02-03T09:47:51.377Z,3.41
2018-02-03T09:48:52.090Z,3.42
2018-02-03T09:49:52.804Z,3.45
2018-02-03T09:50:53.518Z,3.51
2018-02-03T09:51:54.232Z,3.62
2018-02-03T09:52:54.944Z,3.59
2018-02-03T09:53:55.655Z,3.63
2018-02-03T09:54:56.368Z,3.66
2018-02-03T09:55:57.081Z,3.73
2018-02-03T09:56:57.795Z,3.70
2018-02-03T09:57:58.509Z,3.84
2018-02-03T09:58:59.227Z,3.80
2018-02-03T09:59:59.936Z,3.83
2018-02-03T10:01:00.649Z,3.77
2018-02-03T10:02:01.362Z,3.83
2018-02-03T10:03:02.075Z,3.81
2018-02-03T10:04:02.786Z,3.76
2018-02-03T10:05:03.513Z,3.84
2018-02-03T10:06:04.237Z,3.94
2018-02-03T10:07:04.963Z,3.92
2018-02-03T10:08:05.720Z,3.88
2018-02-03T10:09:06.403Z,3.78
2018-02-03T10:10:07.118Z,3.92
2018-02-03T10:11:07.832Z,3.84
2018-02-03T10:12:08.544Z,3.81
2018-02-03T10:13:09.258Z,3.92
2018-02-03T10:14:09.973Z,3.88
2018-02-03T10:15:10.701Z,3.92
2018-02-03T10:16:11.415Z,3.88
2018-02-03T10:17:12.128Z,3.91
2018-02-03T10:18:12.842Z,3.95
2018-02-03T10:19:13.555Z,4.05
2018-02-03T10:20:14.267Z,4.06
2018-02-03T10:21:15.051Z,4.12
2018-02-03T10:22:15.696Z,4.16
2018-02-03T10:23:16.412Z,4.28
2018-02-03T10:24:17.138Z,4.32
2018-02-03T10:25:17.851Z,4.34
2018-02-03T10:26:18.564Z,4.49
2018-02-03T10:27:19.279Z,4.50
2018-02-03T10:28:19.994Z,4.42
2018-02-03T10:29:20.708Z,4.45
2018-02-03T10:30:21.437Z,4.44
2018-02-03T10:31:22.153Z,4.42
2018-02-03T10:32:22.871Z,4.50
2018-02-03T10:33:23.584Z,4.56
2018-02-03T10:34:24.300Z,4.71
2018-02-03T10:35:25.017Z,4.89
2018-02-03T10:36:25.732Z,5.15
2018-02-03T10:37:26.450Z,5.08
2018-02-03T10:38:27.165Z,5.28
2018-02-03T10:39:27.882Z,5.64
2018-02-03T10:40:28.599Z,5.82
2018-02-03T10:41:29.315Z,5.80
2018-02-03T10:42:30.029Z,5.87
2018-02-03T10:43:30.745Z,5.76
2018-02-03T10:44:31.464Z,5.84
2018-02-03T10:45:32.182Z,5.79
2018-02-03T10:46:32.899Z,5.79
2018-02-03T10:47:33.616Z,5.93
2018-02-03T10:48:34.334Z,5.94
2018-02-03T10:49:35.070Z,5.93
2018-02-03T10:50:35.777Z,5.82
2018-02-03T10:51:36.494Z,5.69
2018-02-03T10:52:37.213Z,5.48
2018-02-03T10:53:37.928Z,5.43
2018-02-03T10:54:38.643Z,5.43
2018-02-03T10:55:39.359Z,5.44
2018-02-03T10:56:40.079Z,5.84
2018-02-03T10:57:40.796Z,6.20
2018-02-03T10:58:41.513Z,6.66
2018-02-03T10:59:42.231Z,6.33
2018-02-03T11:00:42.950Z,5.98
2018-02-03T11:01:43.668Z,5.91
2018-02-03T11:02:44.402Z,5.79
2018-02-03T11:03:45.134Z,5.80
2018-02-03T11:04:45.866Z,5.61
2018-02-03T11:05:46.581Z,5.72
2018-02-03T11:06:47.310Z,6.22
2018-02-03T11:07:48.028Z,6.54
2018-02-03T11:08:48.748Z,6.77
2018-02-03T11:09:49.480Z,6.63
2018-02-03T11:10:50.204Z,6.51
2018-02-03T11:11:50.918Z,6.56
2018-02-03T11:12:51.661Z,6.77
2018-02-03T11:13:52.356Z,6.74
2018-02-03T11:14:53.077Z,6.97
2018-02-03T11:15:53.808Z,6.97
2018-02-03T11:16:54.527Z,6.67
2018-02-03T11:17:55.247Z,6.59
2018-02-03T11:18:55.965Z,6.45
2018-02-03T11:19:56.685Z,6.74
2018-02-03T11:20:57.418Z,6.69
2018-02-03T11:21:58.138Z,6.64
2018-02-03T11:22:58.872Z,6.62
2018-02-03T11:23:59.590Z,6.48
2018-02-03T11:25:00.310Z,6.52
2018-02-03T11:26:01.030Z,6.04
2018-02-03T11:27:01.754Z,5.91
2018-02-03T11:28:02.468Z,6.20
2018-02-03T11:29:03.192Z,6.39
2018-02-03T11:30:03.909Z,6.52
2018-02-03T11:31:04.641Z,6.60
2018-02-03T11:32:05.376Z,6.52
2018-02-03T11:33:06.095Z,6.44
2018-02-03T11:34:06.814Z,6.45
2018-02-03T11:35:07.535Z,6.36
2018-02-03T11:36:08.254Z,6.69
2018-02-03T11:37:08.975Z,6.69
2018-02-03T11:38:09.692Z,6.87
2018-02-03T11:39:10.445Z,7.14
2018-02-03T11:40:11.134Z,7.23
2018-02-03T11:41:11.854Z,7.53
2018-02-03T11:42:12.575Z,7.51
2018-02-03T11:43:13.297Z,7.38
2018-02-03T11:44:14.016Z,6.89
2018-02-03T11:45:14.738Z,6.57
2018-02-03T11:46:15.459Z,6.48
2018-02-03T11:47:16.180Z,6.44
2018-02-03T11:48:16.906Z,6.49
2018-02-03T11:49:17.624Z,6.35
2018-02-03T11:50:18.348Z,6.17
2018-02-03T11:51:19.094Z,6.41
2018-02-03T11:52:19.828Z,6.59
2018-02-03T11:53:20.548Z,6.60
2018-02-03T11:54:21.268Z,6.45
2018-02-03T11:55:21.986Z,6.70
2018-02-03T11:56:22.715Z,6.96
2018-02-03T11:57:23.438Z,6.99
2018-02-03T11:58:24.175Z,7.38
2018-02-03T11:59:24.896Z,7.69
2018-02-03T12:00:25.641Z,7.75
2018-02-03T12:01:26.359Z,7.76
2018-02-03T12:02:27.079Z,7.24
2018-02-03T12:03:27.801Z,7.10
2018-02-03T12:04:28.517Z,7.42
2018-02-03T12:05:29.240Z,7.40
2018-02-03T12:06:29.969Z,6.89
2018-02-03T12:07:30.688Z,7.00
2018-02-03T12:08:31.419Z,6.70
2018-02-03T12:09:32.138Z,6.39
2018-02-03T12:10:32.854Z,6.41
2018-02-03T12:11:33.576Z,6.60
2018-02-03T12:12:34.307Z,6.56
2018-02-03T12:13:35.027Z,6.39
2018-02-03T12:14:35.743Z,6.24
2018-02-03T12:15:36.472Z,6.07
2018-02-03T12:16:37.190Z,5.98
2018-02-03T12:17:37.904Z,5.84
2018-02-03T12:18:38.617Z,5.87
2018-02-03T12:19:39.356Z,5.97
2018-02-03T12:20:40.059Z,5.87
2018-02-03T12:21:40.788Z,5.94
2018-02-03T12:22:41.516Z,6.01
2018-02-03T12:23:42.232Z,5.93
2018-02-03T12:24:42.947Z,6.11
2018-02-03T12:25:43.663Z,5.97
2018-02-03T12:26:44.384Z,5.86
2018-02-03T12:27:45.096Z,5.87
2018-02-03T12:28:45.813Z,5.72
2018-02-03T12:29:46.526Z,5.73
2018-02-03T12:30:47.242Z,5.72
2018-02-03T12:31:47.957Z,5.73
2018-02-03T12:32:48.720Z,5.76
2018-02-03T12:33:49.396Z,5.76
2018-02-03T12:34:50.122Z,5.87
2018-02-03T12:35:50.838Z,5.84
2018-02-03T12:36:51.564Z,5.73
2018-02-03T12:37:52.278Z,5.69
2018-02-03T12:38:52.992Z,5.54
2018-02-03T12:39:53.717Z,5.46
2018-02-03T12:40:54.430Z,5.44
2018-02-03T12:41:55.145Z,5.39
2018-02-03T12:42:55.872Z,5.38
2018-02-03T12:43:56.587Z,5.33
2018-02-03T12:44:57.300Z,5.29
2018-02-03T12:45:58.013Z,5.29
2018-02-03T12:46:58.727Z,5.28
2018-02-03T12:47:59.449Z,5.30
2018-02-03T12:49:00.174Z,5.35
2018-02-03T12:50:00.901Z,5.32
2018-02-03T12:51:01.637Z,5.29
2018-02-03T12:52:02.348Z,5.36
2018-02-03T12:53:03.066Z,5.38
2018-02-03T12:54:03.775Z,5.32
2018-02-03T12:55:04.488Z,5.29
2018-02-03T12:56:05.203Z,5.26
2018-02-03T12:57:05.929Z,5.30
2018-02-03T12:58:06.652Z,5.35
2018-02-03T12:59:07.366Z,5.33
2018-02-03T13:00:08.079Z,5.32
2018-02-03T13:01:08.805Z,5.38
2018-02-03T13:02:09.518Z,5.38
2018-02-03T13:03:10.249Z,5.39
2018-02-03T13:04:10.967Z,5.38
2018-02-03T13:05:11.688Z,5.36
2018-02-03T13:06:12.401Z,5.48
2018-02-03T13:07:13.120Z,5.47
2018-02-03T13:08:13.833Z,5.54
2018-02-03T13:09:14.561Z,5.54
2018-02-03T13:10:15.314Z,5.50
2018-02-03T13:11:16.029Z,5.53
2018-02-03T13:12:16.743Z,5.47
2018-02-03T13:13:17.513Z,5.47
2018-02-03T13:14:18.228Z,5.47
2018-02-03T13:15:18.941Z,5.48
2018-02-03T13:16:19.654Z,5.51
2018-02-03T13:17:20.369Z,5.46
2018-02-03T13:18:21.084Z,5.46
2018-02-03T13:19:21.859Z,5.51
2018-02-03T13:20:22.572Z,5.62
2018-02-03T13:21:23.339Z,5.51
2018-02-03T13:22:24.053Z,5.48
2018-02-03T13:23:24.764Z,5.51
2018-02-03T13:24:25.478Z,5.57
2018-02-03T13:25:26.220Z,5.66
2018-02-03T13:26:26.934Z,5.59
2018-02-03T13:27:27.649Z,5.53
2018-02-03T13:28:28.361Z,5.59